KSPR

Ship Shoal

Ship Shoal, Louisiana, USA
METAR KSPR 211435Z AUTO 14006KT 10SM FEW023 28/22 A3003 RMK A01
Observed Flight Rules
May-21 @ 14:35 UTC (19 minutes ago) Visual Flight Rules
Wind Visibility Clouds
140° at 6 knots 10 miles
  • Few at 2,300' AGL
Temperatures Readings
Current 28°C / 82°F
Dewpoint 22°C / 72°F
Humidity 70%
Altimeter 30.03" Hg
Pressure 1017 hPa
Elevation 31
METAR KSPR 211435Z AUTO 14006KT 10SM FEW023 28/22 A3003 RMK A01
Observed Flight Rules
May-21 @ 14:35 UTC
(19 minutes ago)
VFR
Wind Visibility
140° at 6 knots 10 miles
Clouds
  • Few at 2,300' AGL
Temperature Dewpoint
28°C / 82°F 22°C / 72°F
Humidity Altimeter Pressure
70% 30.03" Hg 1017 hPa